Time;durP1;ratioP1;P1;durP2;ratioP2;P2;SDS_P1;SDS_P2;PMS_P1;PMS_P2;Temp;Humidity;BMP_temperature;BMP_pressure;BME280_temperature;BME280_humidity;BME280_pressure;Samples;Min_cycle;Max_cycle;Signal;HPM_P1;HPM_P2
2022/08/13 00:00:32;;;;;;;0.10;0.10;;;18.40;99.90;;;;;;4896264;29;20413;-86
2022/08/13 00:02:59;;;;;;;0.10;0.10;;;18.50;99.90;;;;;;4894102;29;20513;-85
2022/08/13 00:05:26;;;;;;;0.10;0.10;;;18.40;99.90;;;;;;4896383;29;20484;-85
2022/08/13 00:07:52;;;;;;;0.10;0.10;;;18.30;99.90;;;;;;4894589;29;20961;-85
2022/08/13 00:10:30;;;;;;;0.10;0.10;;;18.40;99.90;;;;;;4894045;29;20449;-85
2022/08/13 00:12:57;;;;;;;0.10;0.10;;;18.40;99.90;;;;;;4894799;29;20517;-85
2022/08/13 00:15:35;;;;;;;0.10;0.10;;;18.40;99.90;;;;;;4891258;29;20488;-85
2022/08/13 00:18:05;;;;;;;0.10;0.10;;;18.40;99.90;;;;;;4891604;29;20456;-86
2022/08/13 00:20:38;;;;;;;0.10;0.10;;;18.30;99.90;;;;;;4894224;29;21069;-85
2022/08/13 00:23:06;;;;;;;0.10;0.10;;;18.20;99.90;;;;;;4894054;29;20452;-84
2022/08/13 00:25:33;;;;;;;0.10;0.10;;;18.40;99.90;;;;;;4893581;29;20449;-85
2022/08/13 00:28:02;;;;;;;0.10;0.10;;;18.50;99.90;;;;;;4893739;29;20445;-85
2022/08/13 00:30:31;;;;;;;0.10;0.10;;;18.80;99.90;;;;;;4894003;29;20853;-85
2022/08/13 00:32:59;;;;;;;0.10;0.10;;;18.70;99.90;;;;;;4889351;29;20567;-86
2022/08/13 00:35:26;;;;;;;0.10;0.10;;;18.70;99.90;;;;;;4895775;29;20433;-85
2022/08/13 00:37:53;;;;;;;0.10;0.10;;;19.10;99.90;;;;;;4894293;29;20536;-85
2022/08/13 00:40:19;;;;;;;0.10;0.10;;;19.20;99.90;;;;;;4893513;29;21078;-86
2022/08/13 00:42:44;;;;;;;0.10;0.10;;;18.90;99.90;;;;;;4893082;29;20451;-85
2022/08/13 00:45:10;;;;;;;0.10;0.10;;;18.70;99.90;;;;;;4892873;29;20508;-85
2022/08/13 00:50:20;;;;;;;0.10;0.10;;;18.80;99.90;;;;;;4895047;29;20464;-86
2022/08/13 00:52:48;;;;;;;0.10;0.10;;;18.70;99.90;;;;;;4893730;29;20535;-85
2022/08/13 00:55:19;;;;;;;0.10;0.10;;;18.60;99.90;;;;;;4895843;29;20464;-85
2022/08/13 00:57:47;;;;;;;0.10;0.10;;;18.50;99.90;;;;;;4893347;29;20492;-85
2022/08/13 01:00:19;;;;;;;0.10;0.10;;;18.60;99.90;;;;;;4895225;29;20433;-85
2022/08/13 01:02:48;;;;;;;0.10;0.10;;;18.50;99.90;;;;;;4894400;29;20496;-86
2022/08/13 01:05:14;;;;;;;0.10;0.10;;;18.40;99.90;;;;;;4892567;29;20509;-85
2022/08/13 01:07:41;;;;;;;0.10;0.00;;;18.40;99.90;;;;;;4893228;29;20489;-84
2022/08/13 01:10:09;;;;;;;0.10;0.10;;;18.50;99.90;;;;;;4895368;29;20464;-85
2022/08/13 01:12:36;;;;;;;0.10;0.10;;;18.50;99.90;;;;;;4894797;29;20453;-86
2022/08/13 01:15:04;;;;;;;0.10;0.10;;;18.50;99.90;;;;;;4895003;29;20993;-85
2022/08/13 01:17:31;;;;;;;0.10;0.10;;;18.50;99.90;;;;;;4892376;29;20572;-85
2022/08/13 01:19:57;;;;;;;0.10;0.10;;;18.40;99.90;;;;;;4893198;29;20464;-86
2022/08/13 01:22:24;;;;;;;0.10;0.10;;;18.30;99.90;;;;;;4892717;29;20468;-85
2022/08/13 01:24:50;;;;;;;0.10;0.07;;;18.30;99.90;;;;;;4894108;29;20560;-85
2022/08/13 01:27:18;;;;;;;0.10;0.10;;;18.30;99.90;;;;;;4894725;29;21008;-85
2022/08/13 01:29:47;;;;;;;0.10;0.10;;;18.30;99.90;;;;;;4893470;29;20492;-85
2022/08/13 01:32:15;;;;;;;0.10;0.10;;;18.30;99.90;;;;;;4893767;29;20532;-85
2022/08/13 01:34:48;;;;;;;0.10;0.10;;;18.20;99.90;;;;;;4892346;29;20540;-85
2022/08/13 01:37:15;;;;;;;0.10;0.10;;;18.20;99.90;;;;;;4893308;29;20924;-85
2022/08/13 01:39:41;;;;;;;0.10;0.10;;;18.30;99.90;;;;;;4890906;29;20438;-85
2022/08/13 01:42:08;;;;;;;0.10;0.10;;;18.20;99.90;;;;;;4893433;29;20488;-85
2022/08/13 01:44:35;;;;;;;0.10;0.10;;;18.20;99.90;;;;;;4894043;29;20558;-85
2022/08/13 01:52:36;;;;;;;0.10;0.10;;;18.20;99.90;;;;;;4893522;29;20999;-85
2022/08/13 01:55:04;;;;;;;0.10;0.10;;;18.10;99.90;;;;;;4894407;29;20473;-85
2022/08/13 01:57:33;;;;;;;0.10;0.10;;;18.10;99.90;;;;;;4894514;29;20580;-85
2022/08/13 02:00:00;;;;;;;0.10;0.10;;;18.10;99.90;;;;;;4894147;29;20449;-85
2022/08/13 02:02:27;;;;;;;0.10;0.00;;;18.10;99.90;;;;;;4891008;29;20580;-85
2022/08/13 02:04:53;;;;;;;0.10;0.10;;;18.10;99.90;;;;;;4893912;29;20455;-85
2022/08/13 02:07:20;;;;;;;0.10;0.10;;;18.30;99.90;;;;;;4891248;29;20504;-86
2022/08/13 02:09:45;;;;;;;0.10;0.10;;;18.30;99.90;;;;;;4893560;29;20460;-86
2022/08/13 02:12:15;;;;;;;0.10;0.10;;;18.10;99.90;;;;;;4892932;29;20457;-85
2022/08/13 02:14:42;;;;;;;0.10;0.10;;;18.10;99.90;;;;;;4892483;29;20296;-85
2022/08/13 02:17:25;;;;;;;0.10;0.10;;;18.10;99.90;;;;;;4893978;29;20518;-86
2022/08/13 02:19:55;;;;;;;0.10;0.10;;;18.00;99.90;;;;;;4893844;29;20481;-86
2022/08/13 02:22:22;;;;;;;0.10;0.10;;;18.10;99.90;;;;;;4893204;29;20608;-85
2022/08/13 02:24:52;;;;;;;0.10;0.10;;;18.20;99.90;;;;;;4892143;29;21009;-85
2022/08/13 02:27:20;;;;;;;0.10;0.10;;;18.20;99.90;;;;;;4897701;29;20437;-86
2022/08/13 02:29:47;;;;;;;0.10;0.10;;;18.20;99.90;;;;;;4897593;29;20442;-85
2022/08/13 02:32:12;;;;;;;0.10;0.10;;;18.10;99.90;;;;;;4896356;29;20945;-85
2022/08/13 02:34:39;;;;;;;0.10;0.10;;;18.10;99.90;;;;;;4895944;29;20509;-85
2022/08/13 02:37:05;;;;;;;0.10;0.10;;;18.20;99.90;;;;;;4896660;29;20260;-86
2022/08/13 02:39:30;;;;;;;0.10;0.10;;;17.90;99.90;;;;;;4895808;29;20504;-86
2022/08/13 02:41:56;;;;;;;0.10;0.10;;;17.90;99.90;;;;;;4896318;29;20536;-85
2022/08/13 02:44:25;;;;;;;0.10;0.10;;;17.90;99.90;;;;;;4896906;29;20192;-86
2022/08/13 02:46:51;;;;;;;0.10;0.10;;;18.10;99.90;;;;;;4894480;29;20193;-85
2022/08/13 02:49:21;;;;;;;0.10;0.10;;;18.10;99.90;;;;;;4897778;29;20466;-85
2022/08/13 02:51:47;;;;;;;0.10;0.10;;;18.10;99.90;;;;;;4897398;29;20473;-85
2022/08/13 02:54:20;;;;;;;0.10;0.10;;;18.00;99.90;;;;;;4896011;29;20532;-85
2022/08/13 02:56:47;;;;;;;0.10;0.10;;;17.90;99.90;;;;;;4896193;29;20489;-85
2022/08/13 02:59:12;;;;;;;0.10;0.10;;;17.80;99.90;;;;;;4896187;29;20457;-86
2022/08/13 03:01:40;;;;;;;0.10;0.10;;;17.80;99.90;;;;;;4897081;29;20456;-86
2022/08/13 03:04:07;;;;;;;0.10;0.10;;;17.80;99.90;;;;;;4894920;29;20282;-85
2022/08/13 03:06:33;;;;;;;0.10;0.10;;;18.10;99.90;;;;;;4897484;29;20457;-85
2022/08/13 03:09:02;;;;;;;0.10;0.10;;;18.10;99.90;;;;;;4894788;29;20488;-85
2022/08/13 03:11:29;;;;;;;0.10;0.10;;;18.00;99.90;;;;;;4896707;29;20532;-85
2022/08/13 03:13:58;;;;;;;0.10;0.10;;;18.00;99.90;;;;;;4894464;29;20517;-86
2022/08/13 03:16:26;;;;;;;0.10;0.10;;;17.80;99.90;;;;;;4895162;29;21255;-85
2022/08/13 03:18:54;;;;;;;0.10;0.10;;;17.70;99.90;;;;;;4895551;29;20461;-86
2022/08/13 03:21:35;;;;;;;0.10;0.10;;;17.80;99.90;;;;;;4911517;29;20422;-85
2022/08/13 03:24:03;;;;;;;0.10;0.10;;;17.60;99.90;;;;;;4893582;29;20453;-85
2022/08/13 03:26:30;;;;;;;0.10;0.10;;;17.70;99.90;;;;;;4897125;29;20456;-85
2022/08/13 03:28:56;;;;;;;0.10;0.10;;;17.90;99.90;;;;;;4895108;29;20886;-85
2022/08/13 03:31:24;;;;;;;0.10;0.10;;;18.00;99.90;;;;;;4895751;29;20949;-86
2022/08/13 03:33:53;;;;;;;0.10;0.10;;;17.80;99.90;;;;;;4895169;29;20859;-85
2022/08/13 03:36:20;;;;;;;0.10;0.10;;;17.80;99.90;;;;;;4894373;29;20485;-86
2022/08/13 03:38:46;;;;;;;0.10;0.10;;;17.90;99.90;;;;;;4894318;29;20453;-86
2022/08/13 03:41:14;;;;;;;0.10;0.10;;;18.20;99.90;;;;;;4896748;29;20462;-86
2022/08/13 03:43:42;;;;;;;0.10;0.10;;;18.20;99.90;;;;;;4896236;29;20449;-85
2022/08/13 03:46:16;;;;;;;0.10;0.10;;;17.90;99.90;;;;;;4893512;29;21130;-85
2022/08/13 03:48:47;;;;;;;0.10;0.10;;;18.10;99.90;;;;;;4891531;29;20465;-83
2022/08/13 03:51:13;;;;;;;0.10;0.10;;;17.80;99.90;;;;;;4893717;29;20938;-86
2022/08/13 03:53:39;;;;;;;0.10;0.10;;;18.00;99.90;;;;;;4894943;29;20453;-85
2022/08/13 03:56:06;;;;;;;0.10;0.10;;;17.90;99.90;;;;;;4893515;29;20500;-86
2022/08/13 03:58:33;;;;;;;0.10;0.10;;;17.90;99.90;;;;;;4892643;29;20591;-85
2022/08/13 04:01:02;;;;;;;0.10;0.10;;;17.90;99.90;;;;;;4894487;29;20513;-86
2022/08/13 04:03:36;;;;;;;0.10;0.10;;;17.80;99.90;;;;;;4894411;29;20516;-86
2022/08/13 04:06:09;;;;;;;0.10;0.10;;;17.70;99.90;;;;;;4895057;29;20452;-86
2022/08/13 04:08:36;;;;;;;0.10;0.10;;;17.60;99.90;;;;;;4895096;29;20461;-85
2022/08/13 04:11:05;;;;;;;0.10;0.10;;;17.50;99.90;;;;;;4895177;29;20453;-85
2022/08/13 04:13:38;;;;;;;0.10;0.10;;;17.50;99.90;;;;;;4906371;29;20532;-86
2022/08/13 04:16:08;;;;;;;0.10;0.10;;;17.40;99.90;;;;;;4896067;29;20473;-85
2022/08/13 04:18:37;;;;;;;0.10;0.10;;;17.30;99.90;;;;;;4893701;29;20443;-86
2022/08/13 04:21:05;;;;;;;0.10;0.10;;;17.20;99.90;;;;;;4877405;29;20435;-85
2022/08/13 04:23:34;;;;;;;0.10;0.10;;;17.10;99.90;;;;;;4885011;29;20449;-86
2022/08/13 04:25:59;;;;;;;0.10;0.10;;;17.10;99.90;;;;;;4892838;29;20459;-86
2022/08/13 04:28:26;;;;;;;0.10;0.10;;;17.10;99.90;;;;;;4895905;29;20508;-86
2022/08/13 04:30:52;;;;;;;0.10;0.10;;;17.00;99.90;;;;;;4895101;29;20878;-85
2022/08/13 04:33:18;;;;;;;0.10;0.10;;;16.90;99.90;;;;;;4895942;29;20432;-86
2022/08/13 04:35:45;;;;;;;0.10;0.10;;;17.00;99.90;;;;;;4894421;29;20562;-86
2022/08/13 04:38:15;;;;;;;0.10;0.10;;;16.90;99.90;;;;;;4894284;29;20200;-86
2022/08/13 04:40:43;;;;;;;0.10;0.10;;;16.80;99.90;;;;;;4892660;29;20467;-85
2022/08/13 04:43:10;;;;;;;0.10;0.10;;;16.90;99.90;;;;;;4894188;29;20472;-86
2022/08/13 04:45:38;;;;;;;0.10;0.10;;;16.80;99.90;;;;;;4895111;29;20426;-85
2022/08/13 04:48:07;;;;;;;0.10;0.10;;;16.80;99.90;;;;;;4894061;29;20449;-86
2022/08/13 04:50:34;;;;;;;0.10;0.10;;;16.80;99.90;;;;;;4895301;29;20513;-86
2022/08/13 04:53:04;;;;;;;0.10;0.10;;;16.90;99.90;;;;;;4895134;29;20417;-86
2022/08/13 04:55:30;;;;;;;0.10;0.10;;;16.80;99.90;;;;;;4893454;29;20504;-86
2022/08/13 04:57:56;;;;;;;0.10;0.10;;;16.90;99.90;;;;;;4894904;29;20539;-86
2022/08/13 05:00:24;;;;;;;0.10;0.10;;;16.90;99.90;;;;;;4894197;29;21537;-86
2022/08/13 05:02:52;;;;;;;0.10;0.10;;;17.00;99.90;;;;;;4908099;29;20391;-85
2022/08/13 05:05:21;;;;;;;0.10;0.10;;;16.90;99.90;;;;;;4894620;29;20804;-85
2022/08/13 05:07:50;;;;;;;0.10;0.10;;;16.90;99.90;;;;;;4892867;29;20516;-85
2022/08/13 05:10:15;;;;;;;0.10;0.10;;;17.00;99.90;;;;;;4893591;29;20926;-86
2022/08/13 05:12:41;;;;;;;0.10;0.10;;;17.00;99.90;;;;;;4892403;29;20456;-86
2022/08/13 05:15:07;;;;;;;0.10;0.10;;;17.00;99.90;;;;;;4882057;29;20622;-86
2022/08/13 05:17:33;;;;;;;0.10;0.10;;;17.10;99.90;;;;;;4893724;29;20689;-84
2022/08/13 05:19:59;;;;;;;0.10;0.10;;;17.10;99.90;;;;;;4905260;29;20763;-86
2022/08/13 05:22:26;;;;;;;0.10;0.10;;;17.20;99.90;;;;;;4910504;29;20200;-86
2022/08/13 05:24:52;;;;;;;0.10;0.10;;;17.30;99.90;;;;;;4892845;29;20472;-85
2022/08/13 05:27:19;;;;;;;0.10;0.10;;;17.40;99.90;;;;;;4893708;29;20437;-86
2022/08/13 05:29:44;;;;;;;0.10;0.10;;;17.50;99.90;;;;;;4891623;29;20200;-86
2022/08/13 05:32:12;;;;;;;0.10;0.10;;;17.60;99.90;;;;;;4894299;29;20437;-86
2022/08/13 05:34:38;;;;;;;0.10;0.10;;;17.60;99.90;;;;;;4893423;29;20268;-87
2022/08/13 05:37:06;;;;;;;0.10;0.10;;;17.70;99.90;;;;;;4893877;29;20539;-86
2022/08/13 05:39:32;;;;;;;0.10;0.10;;;17.90;99.90;;;;;;4894062;29;20283;-87
2022/08/13 05:41:58;;;;;;;0.10;0.10;;;18.00;99.90;;;;;;4893894;29;20445;-86
2022/08/13 05:44:24;;;;;;;0.10;0.10;;;18.10;99.90;;;;;;4893979;29;20561;-87
2022/08/13 05:46:49;;;;;;;0.10;0.10;;;18.30;99.90;;;;;;4893161;29;20201;-86
2022/08/13 05:49:15;;;;;;;0.10;0.10;;;18.40;99.90;;;;;;4908846;29;20672;-86
2022/08/13 05:51:43;;;;;;;0.10;0.10;;;18.60;99.90;;;;;;4895062;29;20189;-85
2022/08/13 05:54:10;;;;;;;0.10;0.10;;;18.80;99.90;;;;;;4893208;29;20441;-85
2022/08/13 05:56:37;;;;;;;0.10;0.10;;;18.90;99.90;;;;;;4893980;29;20500;-85
2022/08/13 05:59:06;;;;;;;0.10;0.10;;;19.10;99.90;;;;;;4894712;29;20484;-87
2022/08/13 06:04:19;;;;;;;0.10;0.10;;;19.30;99.90;;;;;;4896709;29;20483;-87
2022/08/13 06:06:46;;;;;;;0.10;0.10;;;19.40;99.90;;;;;;4898434;29;20440;-86
2022/08/13 06:09:11;;;;;;;0.10;0.10;;;19.60;99.90;;;;;;4897211;29;20468;-87
2022/08/13 06:11:40;;;;;;;0.10;0.00;;;19.80;99.90;;;;;;4896260;29;20452;-87
2022/08/13 06:14:06;;;;;;;0.10;0.10;;;20.00;99.90;;;;;;4890599;29;20247;-88
2022/08/13 06:16:33;;;;;;;0.10;0.00;;;20.20;99.90;;;;;;4893617;29;20493;-88
2022/08/13 06:18:59;;;;;;;0.10;0.10;;;20.20;99.90;;;;;;4897112;29;20488;-87
2022/08/13 06:21:27;;;;;;;0.10;0.10;;;20.30;99.90;;;;;;4896507;29;21036;-88
2022/08/13 06:23:53;;;;;;;0.10;0.00;;;20.40;99.90;;;;;;4897311;29;20437;-87
2022/08/13 06:26:21;;;;;;;0.10;0.10;;;20.60;99.90;;;;;;4895777;29;20457;-87
2022/08/13 06:28:48;;;;;;;0.10;0.10;;;20.80;99.90;;;;;;4897464;29;21263;-87
2022/08/13 06:31:16;;;;;;;0.10;0.10;;;20.90;99.90;;;;;;4895672;29;20453;-88
2022/08/13 06:33:44;;;;;;;0.10;0.00;;;21.00;99.90;;;;;;4897963;29;20461;-88
2022/08/13 06:36:12;;;;;;;0.10;0.10;;;21.20;99.90;;;;;;4896361;29;20488;-86
2022/08/13 06:38:42;;;;;;;0.10;0.10;;;21.30;99.90;;;;;;4889868;29;20521;-85
2022/08/13 06:41:10;;;;;;;0.10;0.10;;;21.40;99.90;;;;;;4890616;29;20460;-84
2022/08/13 06:43:39;;;;;;;0.10;0.10;;;21.60;99.90;;;;;;4895600;29;20439;-84
2022/08/13 06:46:05;;;;;;;0.10;0.00;;;21.60;99.90;;;;;;4896959;29;20449;-82
2022/08/13 06:48:35;;;;;;;0.10;0.00;;;21.70;99.90;;;;;;4896957;29;20449;-82
2022/08/13 06:51:04;;;;;;;0.10;0.00;;;21.80;99.90;;;;;;4911123;29;21005;-83
2022/08/13 06:53:32;;;;;;;0.10;0.00;;;22.00;99.90;;;;;;4892717;29;20953;-84
2022/08/13 06:55:57;;;;;;;0.10;0.00;;;22.10;99.90;;;;;;4895502;29;20457;-83
2022/08/13 06:58:28;;;;;;;0.10;0.00;;;22.20;99.90;;;;;;4896708;29;20445;-85
2022/08/13 07:00:55;;;;;;;0.10;0.00;;;22.20;99.90;;;;;;4896364;29;20617;-85
2022/08/13 07:03:25;;;;;;;0.10;0.00;;;22.40;99.90;;;;;;4895803;29;20497;-85
2022/08/13 07:05:51;;;;;;;0.10;0.00;;;22.60;99.90;;;;;;4896456;29;20922;-85
2022/08/13 07:08:17;;;;;;;0.10;0.00;;;22.60;99.90;;;;;;4906973;29;20539;-86
2022/08/13 07:11:21;;;;;;;0.10;0.00;;;22.80;99.90;;;;;;4895259;29;20185;-86
2022/08/13 07:13:37;;;;;;;0.10;0.00;;;22.90;99.90;;;;;;4895960;29;20577;-85
2022/08/13 07:16:03;;;;;;;0.10;0.00;;;23.00;99.90;;;;;;4895933;29;20480;-86
2022/08/13 07:18:30;;;;;;;0.10;0.00;;;23.10;99.90;;;;;;4896803;29;20964;-87
2022/08/13 07:20:56;;;;;;;0.10;0.00;;;23.10;99.90;;;;;;4896668;29;20257;-86
2022/08/13 07:23:21;;;;;;;0.10;0.00;;;23.30;99.90;;;;;;4898395;29;20883;-87
2022/08/13 07:25:49;;;;;;;0.10;0.00;;;23.40;99.90;;;;;;4895750;29;20199;-86
2022/08/13 07:28:19;;;;;;;0.10;0.00;;;23.50;99.90;;;;;;4894241;29;20744;-87
2022/08/13 07:30:46;;;;;;;0.10;0.00;;;23.70;99.90;;;;;;4895562;29;20472;-86
2022/08/13 07:33:13;;;;;;;0.10;0.00;;;23.80;99.90;;;;;;4894152;29;20957;-84
2022/08/13 07:35:38;;;;;;;0.10;0.10;;;23.90;99.90;;;;;;4897162;29;20445;-84
2022/08/13 07:38:04;;;;;;;0.10;0.00;;;24.00;99.90;;;;;;4894187;29;20504;-85
2022/08/13 07:40:31;;;;;;;0.10;0.00;;;24.10;99.90;;;;;;4895883;29;20622;-86
2022/08/13 07:42:58;;;;;;;0.10;0.00;;;24.40;99.90;;;;;;4894541;29;20196;-86
2022/08/13 07:45:24;;;;;;;0.10;0.00;;;24.50;99.90;;;;;;4895898;29;20789;-87
2022/08/13 07:47:50;;;;;;;0.10;0.00;;;24.60;99.90;;;;;;4908509;29;20501;-86
2022/08/13 07:50:17;;;;;;;0.10;0.00;;;24.70;99.90;;;;;;4895276;29;20272;-87
2022/08/13 07:52:43;;;;;;;0.10;0.00;;;24.80;99.90;;;;;;4892109;29;20717;-87
2022/08/13 07:55:08;;;;;;;0.10;0.00;;;25.10;99.90;;;;;;4894142;29;20438;-86
2022/08/13 07:57:36;;;;;;;0.10;0.00;;;25.20;99.90;;;;;;4895105;29;20528;-87
2022/08/13 08:00:05;;;;;;;0.10;0.00;;;25.30;99.90;;;;;;4896211;29;20180;-89
2022/08/13 08:02:32;;;;;;;0.10;0.00;;;25.40;99.90;;;;;;4895712;29;20881;-88
2022/08/13 08:04:57;;;;;;;0.10;0.00;;;25.50;99.90;;;;;;4894287;29;20536;-86
2022/08/13 08:07:27;;;;;;;0.10;0.00;;;25.60;99.90;;;;;;4895957;29;20536;-86
2022/08/13 08:09:53;;;;;;;0.10;0.00;;;25.90;99.90;;;;;;4895288;29;20189;-85
2022/08/13 08:12:35;;;;;;;0.10;0.00;;;26.00;99.90;;;;;;4896438;29;20556;-88
2022/08/13 08:15:05;;;;;;;0.10;0.00;;;26.20;99.90;;;;;;4893147;29;21002;-87
2022/08/13 08:17:31;;;;;;;0.10;0.00;;;26.20;99.90;;;;;;4890450;29;20550;-87
2022/08/13 08:19:58;;;;;;;0.10;0.00;;;26.30;99.90;;;;;;4888278;29;20473;-88
2022/08/13 08:22:24;;;;;;;0.10;0.00;;;26.50;99.90;;;;;;4894182;29;20532;-89
2022/08/13 08:24:50;;;;;;;0.10;0.00;;;26.70;99.90;;;;;;4894801;29;20465;-87
2022/08/13 08:27:17;;;;;;;0.10;0.00;;;26.70;99.90;;;;;;4895267;29;20757;-88
2022/08/13 08:29:45;;;;;;;0.10;0.00;;;27.00;99.90;;;;;;4895225;29;20271;-89
2022/08/13 08:32:12;;;;;;;0.10;0.00;;;27.10;99.90;;;;;;4894496;29;20460;-88
2022/08/13 08:34:40;;;;;;;0.10;0.00;;;27.30;99.90;;;;;;4894643;29;20448;-87
2022/08/13 08:37:07;;;;;;;0.10;0.00;;;27.40;99.90;;;;;;4891857;29;20584;-87
2022/08/13 08:42:36;;;;;;;0.10;0.00;;;27.50;99.90;;;;;;4891945;29;20519;-89
2022/08/13 08:45:03;;;;;;;0.10;0.00;;;27.60;99.90;;;;;;4894342;29;20449;-87
2022/08/13 08:47:35;;;;;;;0.10;0.00;;;28.00;99.90;;;;;;4895753;29;20426;-88
2022/08/13 08:50:01;;;;;;;0.10;0.00;;;28.00;99.90;;;;;;4894048;29;20487;-87
2022/08/13 08:55:15;;;;;;;0.10;0.00;;;28.10;99.90;;;;;;4888548;29;20236;-87
2022/08/13 08:57:44;;;;;;;0.10;0.00;;;28.40;99.90;;;;;;4893351;29;20481;-87
2022/08/13 09:00:14;;;;;;;0.10;0.00;;;28.50;99.90;;;;;;4893545;29;20501;-89
2022/08/13 09:02:40;;;;;;;0.10;0.00;;;28.50;99.90;;;;;;4895496;29;20493;-91
2022/08/13 09:05:12;;;;;;;0.10;0.00;;;28.80;99.90;;;;;;4894528;29;20427;-89
2022/08/13 09:07:41;;;;;;;0.10;0.00;;;28.80;99.90;;;;;;4896014;29;20441;-88
2022/08/13 09:10:11;;;;;;;0.10;0.00;;;28.90;99.90;;;;;;4895648;29;20425;-89
2022/08/13 09:12:40;;;;;;;0.10;0.00;;;29.20;99.90;;;;;;4895527;29;20941;-89
2022/08/13 09:15:06;;;;;;;0.10;0.00;;;28.90;99.90;;;;;;4895457;29;20532;-89
2022/08/13 09:17:33;;;;;;;0.10;0.00;;;29.20;99.90;;;;;;4893333;29;20535;-89
2022/08/13 09:19:58;;;;;;;0.10;0.00;;;29.50;99.90;;;;;;4895534;29;20430;-90
2022/08/13 09:22:24;;;;;;;0.10;0.00;;;29.50;99.90;;;;;;4894206;29;20453;-90
2022/08/13 09:24:58;;;;;;;0.10;0.00;;;29.80;99.50;;;;;;4895540;29;20189;-90
2022/08/13 09:27:26;;;;;;;0.10;0.00;;;30.00;98.60;;;;;;4895277;29;20433;-90
2022/08/13 09:29:51;;;;;;;0.10;0.00;;;30.10;98.40;;;;;;4894307;29;20549;-92
2022/08/13 09:32:17;;;;;;;0.10;0.00;;;30.10;98.70;;;;;;4895023;29;20874;-89
2022/08/13 09:34:46;;;;;;;0.10;0.00;;;30.00;95.40;;;;;;4894503;29;20184;-88
2022/08/13 09:37:12;;;;;;;0.10;0.00;;;30.30;96.70;;;;;;4896931;29;20229;-90
2022/08/13 09:39:49;;;;;;;0.10;0.00;;;30.60;96.80;;;;;;4897826;29;20460;-90
2022/08/13 09:42:26;;;;;;;0.10;0.00;;;30.60;92.50;;;;;;4898884;29;20455;-89
2022/08/13 09:44:56;;;;;;;0.10;0.00;;;30.60;92.50;;;;;;4913528;29;20528;-88
2022/08/13 09:47:23;;;;;;;0.10;0.00;;;30.70;95.90;;;;;;4899063;29;20795;-90
2022/08/13 09:49:49;;;;;;;0.10;0.00;;;30.90;92.50;;;;;;4896532;29;20501;-86
2022/08/13 09:52:15;;;;;;;0.10;0.00;;;30.90;93.10;;;;;;4898067;29;20456;-91
2022/08/13 09:54:42;;;;;;;0.10;0.00;;;31.10;95.40;;;;;;4898366;29;20189;-90
2022/08/13 09:57:08;;;;;;;0.10;0.00;;;31.30;94.90;;;;;;4898674;29;20484;-88
2022/08/13 09:59:34;;;;;;;0.10;0.00;;;31.30;95.70;;;;;;4896612;29;20809;-89
2022/08/13 10:02:05;;;;;;;0.10;0.00;;;31.40;96.90;;;;;;4896945;29;20456;-88
2022/08/13 10:04:32;;;;;;;0.10;0.00;;;31.40;96.70;;;;;;4897306;29;20237;-87
2022/08/13 10:06:59;;;;;;;0.10;0.00;;;31.70;96.40;;;;;;4897987;29;20449;-89
2022/08/13 10:09:26;;;;;;;0.10;0.00;;;32.00;96.30;;;;;;4898096;29;20449;-89
2022/08/13 10:11:52;;;;;;;0.10;0.00;;;32.20;97.10;;;;;;4896555;29;20449;-89
2022/08/13 10:14:18;;;;;;;0.10;0.00;;;32.40;96.00;;;;;;4896083;29;20489;-88
2022/08/13 10:16:44;;;;;;;0.10;0.00;;;32.40;94.30;;;;;;4897341;29;20476;-88
2022/08/13 10:19:09;;;;;;;0.10;0.00;;;32.30;92.20;;;;;;4895413;29;20657;-87
2022/08/13 10:21:35;;;;;;;0.10;0.00;;;32.40;92.60;;;;;;4885044;29;20185;-89
2022/08/13 10:24:00;;;;;;;0.10;0.00;;;32.50;95.20;;;;;;4894545;29;20652;-88
2022/08/13 10:26:25;;;;;;;0.10;0.00;;;32.90;93.60;;;;;;4893630;29;20192;-84
2022/08/13 10:28:51;;;;;;;0.10;0.00;;;33.20;95.60;;;;;;4898057;29;20196;-86
2022/08/13 10:31:17;;;;;;;0.10;0.00;;;33.50;94.40;;;;;;4898062;29;20177;-85
2022/08/13 10:33:43;;;;;;;0.10;0.00;;;33.70;92.60;;;;;;4896896;29;20852;-84
2022/08/13 10:36:10;;;;;;;0.10;0.00;;;33.60;92.70;;;;;;4894265;29;20217;-83
2022/08/13 10:38:35;;;;;;;0.10;0.00;;;32.80;93.80;;;;;;4911570;29;20223;-84
2022/08/13 10:41:07;;;;;;;0.10;0.00;;;33.10;94.10;;;;;;4897329;29;20488;-84
2022/08/13 10:43:33;;;;;;;0.10;0.00;;;32.30;94.20;;;;;;4894899;29;20181;-85
2022/08/13 10:45:59;;;;;;;0.10;0.00;;;31.40;93.90;;;;;;4889852;29;20496;-86
2022/08/13 10:48:26;;;;;;;0.10;0.00;;;30.70;94.60;;;;;;4893544;29;20541;-85
2022/08/13 10:50:53;;;;;;;0.10;0.00;;;30.30;95.90;;;;;;4893742;29;20313;-87
2022/08/13 10:56:04;;;;;;;0.10;0.00;;;31.10;97.50;;;;;;4893103;29;20504;-83
2022/08/13 10:58:31;;;;;;;0.10;0.00;;;32.20;94.10;;;;;;4894746;29;20468;-83
2022/08/13 11:00:59;;;;;;;0.10;0.00;;;33.20;93.90;;;;;;4892801;29;20232;-83
2022/08/13 11:03:25;;;;;;;0.10;0.00;;;33.80;93.30;;;;;;4894669;29;20445;-82
2022/08/13 11:05:50;;;;;;;0.10;0.00;;;34.10;92.40;;;;;;4894150;29;20519;-81
2022/08/13 11:08:16;;;;;;;0.10;0.00;;;33.80;93.60;;;;;;4891239;29;20901;-81
2022/08/13 11:10:41;;;;;;;0.10;0.00;;;33.20;93.20;;;;;;4892740;29;20620;-82
2022/08/13 11:13:07;;;;;;;0.10;0.00;;;32.20;93.50;;;;;;4895221;29;20185;-81
2022/08/13 11:15:33;;;;;;;0.10;0.00;;;31.10;96.00;;;;;;4909075;29;20592;-84
2022/08/13 11:18:00;;;;;;;0.10;0.00;;;30.60;95.90;;;;;;4892177;29;20228;-85
2022/08/13 11:20:27;;;;;;;0.10;0.00;;;30.90;95.60;;;;;;4890297;29;20299;-85
2022/08/13 11:22:55;;;;;;;0.10;0.00;;;31.30;96.10;;;;;;4895731;29;20434;-83
2022/08/13 11:25:21;;;;;;;0.10;0.00;;;31.50;94.20;;;;;;4892661;29;20483;-85
2022/08/13 11:27:48;;;;;;;0.10;0.00;;;31.10;94.10;;;;;;4894691;29;20509;-84
2022/08/13 11:30:16;;;;;;;0.10;0.00;;;30.50;94.60;;;;;;4892257;29;20456;-84
2022/08/13 11:32:41;;;;;;;0.10;0.00;;;29.90;94.70;;;;;;4894941;29;20433;-84
2022/08/13 11:35:08;;;;;;;0.10;0.00;;;29.50;96.00;;;;;;4892656;29;21009;-83
2022/08/13 11:37:35;;;;;;;0.10;0.00;;;29.20;95.80;;;;;;4893854;29;20312;-85
2022/08/13 11:40:03;;;;;;;0.10;0.00;;;29.10;96.30;;;;;;4894903;29;20533;-86
2022/08/13 11:42:30;;;;;;;0.10;0.00;;;30.50;95.30;;;;;;4892325;29;20461;-83
2022/08/13 11:44:55;;;;;;;0.10;0.00;;;32.20;94.90;;;;;;4891604;29;20835;-82
2022/08/13 11:47:21;;;;;;;0.10;0.00;;;32.80;92.80;;;;;;4894885;29;21039;-82
2022/08/13 11:49:46;;;;;;;0.10;0.00;;;33.10;91.80;;;;;;4893389;29;20177;-83
2022/08/13 11:52:12;;;;;;;0.10;0.00;;;33.10;90.50;;;;;;4907313;29;20229;-83
2022/08/13 11:54:38;;;;;;;0.10;0.00;;;33.50;90.90;;;;;;4893818;29;20185;-82
2022/08/13 11:57:05;;;;;;;0.10;0.00;;;34.20;89.40;;;;;;4894157;29;20697;-84
2022/08/13 11:59:30;;;;;;;0.10;0.00;;;34.50;87.10;;;;;;4893553;29;20204;-82
2022/08/13 12:01:56;;;;;;;0.10;0.00;;;34.10;83.50;;;;;;4892603;29;20831;-81
2022/08/13 12:04:24;;;;;;;0.10;0.00;;;34.10;87.40;;;;;;4893566;29;20196;-81
2022/08/13 12:06:49;;;;;;;0.10;0.00;;;34.70;86.10;;;;;;4892535;29;20232;-81
2022/08/13 12:09:16;;;;;;;0.10;0.00;;;35.20;83.60;;;;;;4892594;29;20460;-80
2022/08/13 12:11:42;;;;;;;0.10;0.00;;;35.40;82.70;;;;;;4892539;29;20581;-84
2022/08/13 12:14:08;;;;;;;0.10;0.00;;;35.40;82.30;;;;;;4890938;29;20489;-81
2022/08/13 12:16:33;;;;;;;0.10;0.00;;;35.50;82.70;;;;;;4892755;29;20217;-80
2022/08/13 12:18:59;;;;;;;0.10;0.00;;;35.30;79.80;;;;;;4892907;29;20208;-81
2022/08/13 12:21:24;;;;;;;0.10;0.00;;;35.30;81.10;;;;;;4893263;29;20196;-81
2022/08/13 12:23:50;;;;;;;0.10;0.00;;;35.60;78.70;;;;;;4893916;29;20185;-80
2022/08/13 12:26:15;;;;;;;0.10;0.00;;;35.60;81.40;;;;;;4893459;29;20541;-81
2022/08/13 12:28:41;;;;;;;0.10;0.00;;;35.20;78.80;;;;;;4893906;29;20280;-82
2022/08/13 12:31:07;;;;;;;0.10;0.00;;;35.50;78.80;;;;;;4890332;29;20241;-82
2022/08/13 12:33:36;;;;;;;0.10;0.00;;;35.30;79.90;;;;;;4892286;29;20280;-81
2022/08/13 12:36:02;;;;;;;0.10;0.00;;;35.40;76.50;;;;;;4891265;29;20495;-82
2022/08/13 12:38:28;;;;;;;0.10;0.00;;;35.20;78.90;;;;;;4893413;29;20472;-83
2022/08/13 12:40:54;;;;;;;0.10;0.00;;;35.50;79.70;;;;;;4892151;29;20221;-82
2022/08/13 12:43:20;;;;;;;0.10;0.00;;;35.30;77.60;;;;;;4891820;29;20913;-81
2022/08/13 12:45:46;;;;;;;0.10;0.00;;;35.30;79.50;;;;;;4891833;29;20217;-84
2022/08/13 12:48:14;;;;;;;0.10;0.00;;;34.60;75.90;;;;;;4891394;29;20193;-83
2022/08/13 12:50:41;;;;;;;0.10;0.00;;;35.20;79.60;;;;;;4890606;29;20200;-81
2022/08/13 12:53:07;;;;;;;0.10;0.00;;;35.30;78.30;;;;;;4891685;29;20486;-81
2022/08/13 12:55:37;;;;;;;0.10;0.00;;;35.70;80.40;;;;;;4892265;29;20476;-78
2022/08/13 12:58:21;;;;;;;0.10;0.00;;;35.60;74.90;;;;;;4893099;29;20515;-80
2022/08/13 13:00:50;;;;;;;0.10;0.00;;;36.10;77.50;;;;;;4890885;29;20512;-80
2022/08/13 13:03:16;;;;;;;0.10;0.00;;;35.30;75.20;;;;;;4890565;29;20457;-82
2022/08/13 13:05:45;;;;;;;0.10;0.00;;;34.20;77.40;;;;;;4891097;29;21005;-81
2022/08/13 13:08:22;;;;;;;0.10;0.00;;;33.50;81.10;;;;;;4892866;29;20465;-85